Time;durP1;ratioP1;P1;durP2;ratioP2;P2;SDS_P1;SDS_P2;PMS_P1;PMS_P2;Temp;Humidity;BMP_temperature;BMP_pressure;BME280_temperature;BME280_humidity;BME280_pressure;Samples;Min_cycle;Max_cycle;Signal;HPM_P1;HPM_P2
2023/08/08 00:00:09;;;;;;;48.07;3.10;;;;;;;23.85;62.75;99158.75;7306870;19;130317;-33
2023/08/08 00:02:35;;;;;;;37.38;2.47;;;;;;;23.82;63.08;99166.97;7308659;19;129818;-36
2023/08/08 00:05:00;;;;;;;39.37;2.93;;;;;;;23.83;63.23;99160.72;7306035;19;130159;-41
2023/08/08 00:07:29;;;;;;;51.15;3.65;;;;;;;23.85;63.43;99164.03;7305170;19;130617;-35
2023/08/08 00:09:55;;;;;;;53.97;3.58;;;;;;;23.83;63.40;99155.47;7304807;19;129431;-45
2023/08/08 00:12:20;;;;;;;32.93;2.43;;;;;;;23.82;62.82;99159.09;7307118;19;129356;-37
2023/08/08 00:14:45;;;;;;;26.00;1.90;;;;;;;23.76;63.45;99137.94;7308458;19;130298;-36
2023/08/08 00:17:11;;;;;;;40.70;3.00;;;;;;;23.84;63.45;99157.13;7303500;19;130097;-43
2023/08/08 00:19:36;;;;;;;36.73;2.47;;;;;;;23.84;63.10;99151.06;7307290;19;129578;-38
2023/08/08 00:22:01;;;;;;;75.10;5.07;;;;;;;23.85;63.42;99147.47;7305163;19;130137;-36
2023/08/08 00:24:27;;;;;;;52.92;3.92;;;;;;;23.84;63.01;99146.63;7305885;19;129400;-45
2023/08/08 00:26:52;;;;;;;27.88;2.13;;;;;;;23.84;63.36;99151.88;7306441;19;129873;-37
2023/08/08 00:29:17;;;;;;;100.53;6.73;;;;;;;23.85;63.08;99148.25;7307535;19;130581;-38
2023/08/08 00:31:43;;;;;;;45.77;3.20;;;;;;;23.84;63.35;99138.75;7304177;19;129300;-37
2023/08/08 00:34:08;;;;;;;25.13;1.80;;;;;;;23.85;63.14;99148.25;7306641;19;129210;-42
2023/08/08 00:36:33;;;;;;;24.07;1.70;;;;;;;23.81;62.92;99135.63;7304457;19;128942;-37
2023/08/08 00:38:59;;;;;;;26.50;1.83;;;;;;;23.85;63.33;99148.25;7306792;19;130061;-42
2023/08/08 00:41:25;;;;;;;56.13;4.03;;;;;;;23.84;62.86;99141.38;7306252;19;128988;-36
2023/08/08 00:43:50;;;;;;;27.42;2.03;;;;;;;23.83;62.67;99139.72;7306183;19;128995;-41
2023/08/08 00:46:20;;;;;;;53.07;4.03;;;;;;;23.85;63.20;99147.47;7303612;19;129419;-38
2023/08/08 00:48:46;;;;;;;31.88;2.15;;;;;;;23.84;62.70;99151.88;7306683;19;129645;-42
2023/08/08 00:51:11;;;;;;;24.50;1.90;;;;;;;23.81;62.71;99146.97;7308888;19;131146;-43
2023/08/08 00:53:37;;;;;;;25.27;1.67;;;;;;;23.84;63.09;99151.06;7313296;19;129149;-36
2023/08/08 00:56:02;;;;;;;42.97;2.93;;;;;;;23.83;63.13;99146.81;7311457;19;129048;-38
2023/08/08 00:58:28;;;;;;;87.77;6.30;;;;;;;23.81;62.74;99141.72;7311875;19;129710;-37
2023/08/08 01:00:59;;;;;;;17.30;1.48;;;;;;;23.83;62.79;99142.34;7313734;19;129828;-39
2023/08/08 01:03:25;;;;;;;60.35;4.35;;;;;;;23.85;62.59;99147.47;7312010;19;129777;-39
2023/08/08 01:05:58;;;;;;;43.90;2.83;;;;;;;23.85;63.58;99145.63;7311792;19;128940;-43
2023/08/08 01:08:32;;;;;;;56.97;4.03;;;;;;;23.83;63.27;99139.72;7311932;19;129210;-39
2023/08/08 01:10:57;;;;;;;26.13;1.88;;;;;;;23.84;63.37;99141.38;7311697;19;129244;-39
2023/08/08 01:13:26;;;;;;;73.83;5.40;;;;;;;23.84;63.09;99145.81;7311894;19;129032;-42
2023/08/08 01:15:54;;;;;;;26.95;1.95;;;;;;;23.79;62.97;99133.19;7310900;19;129628;-36
2023/08/08 01:18:20;;;;;;;59.55;4.05;;;;;;;23.83;62.78;99139.72;7312436;19;130221;-36
2023/08/08 01:20:46;;;;;;;36.90;2.63;;;;;;;23.83;63.38;99134.47;7311799;19;130415;-35
2023/08/08 01:23:23;;;;;;;32.10;2.28;;;;;;;23.85;63.68;99135.13;7313107;19;128916;-39
2023/08/08 01:25:50;;;;;;;41.10;2.77;;;;;;;23.83;63.10;99129.22;7308681;19;130014;-40
2023/08/08 01:28:15;;;;;;;64.90;4.43;;;;;;;23.73;63.01;99112.84;7312921;19;130557;-42
2023/08/08 01:30:42;;;;;;;57.50;4.07;;;;;;;23.72;63.42;99105.94;7312164;19;129507;-39
2023/08/08 01:33:08;;;;;;;21.13;1.55;;;;;;;23.75;62.79;99115.31;7313111;19;129269;-40
2023/08/08 01:35:41;;;;;;;28.73;1.93;;;;;;;23.82;63.36;99124.97;7310872;19;128804;-40
2023/08/08 01:38:31;;;;;;;44.47;2.83;;;;;;;23.84;63.78;99124.81;7313311;19;129451;-47
2023/08/08 01:40:57;;;;;;;34.67;2.50;;;;;;;23.81;63.54;99125.97;7312227;19;130283;-39
2023/08/08 01:43:23;;;;;;;;;;;;;;;23.90;63.62;99122.34;7312425;19;129242;-34
2023/08/08 01:45:51;;;;;;;52.53;3.78;;;;;;;23.82;62.89;99127.59;7309807;19;129306;-37
2023/08/08 01:48:16;;;;;;;40.08;3.00;;;;;;;23.82;63.41;99124.97;7310448;19;129449;-39
2023/08/08 01:50:41;;;;;;;30.20;2.07;;;;;;;23.83;63.38;99131.84;7310449;19;129274;-42
2023/08/08 01:53:07;;;;;;;55.90;3.70;;;;;;;23.72;63.40;99116.44;7311631;19;129765;-36
2023/08/08 01:55:32;;;;;;;53.93;3.50;;;;;;;23.81;62.86;99130.38;7310709;19;130602;-35
2023/08/08 01:57:58;;;;;;;45.80;3.33;;;;;;;23.81;63.59;99125.97;7310430;19;129882;-37
2023/08/08 02:00:23;;;;;;;36.70;2.43;;;;;;;23.78;63.22;99126.31;7310746;19;129796;-36
2023/08/08 02:02:48;;;;;;;32.87;2.23;;;;;;;23.71;63.21;99120.06;7311907;19;129167;-37
2023/08/08 02:05:14;;;;;;;47.30;3.47;;;;;;;23.81;62.96;99136.47;7309445;19;129309;-36
2023/08/08 02:07:39;;;;;;;39.13;2.57;;;;;;;23.80;63.18;99140.06;7305307;19;129664;-35
2023/08/08 02:10:05;;;;;;;54.15;3.35;;;;;;;23.81;63.21;99139.09;7308162;19;129666;-42
2023/08/08 02:12:30;;;;;;;29.37;1.93;;;;;;;23.80;63.21;99134.81;7309772;19;129723;-43
2023/08/08 02:14:59;;;;;;;20.50;1.83;;;;;;;23.79;62.79;99127.94;7310588;19;128995;-35
2023/08/08 02:17:25;;;;;;;46.85;3.47;;;;;;;23.79;63.57;99133.19;7306297;19;129271;-36
2023/08/08 02:19:51;;;;;;;41.65;2.72;;;;;;;23.78;63.17;99128.94;7309496;19;130659;-33
2023/08/08 02:22:17;;;;;;;48.40;3.33;;;;;;;23.68;62.86;99117.78;7309872;19;129755;-44
2023/08/08 02:24:42;;;;;;;20.97;1.40;;;;;;;23.80;62.96;99126.94;7308830;19;131067;-38
2023/08/08 02:27:08;;;;;;;24.53;1.70;;;;;;;23.79;62.98;99125.31;7308151;19;130184;-41
2023/08/08 02:29:33;;;;;;;78.20;5.20;;;;;;;23.79;63.26;99130.56;7308343;19;130099;-38
2023/08/08 02:31:58;;;;;;;22.73;1.57;;;;;;;23.80;63.24;99129.56;7308518;19;130784;-36
2023/08/08 02:34:24;;;;;;;42.60;3.07;;;;;;;23.79;63.21;99121.84;7310203;19;129000;-39
2023/08/08 02:36:49;;;;;;;36.97;2.83;;;;;;;23.80;63.22;99129.56;7307320;19;129495;-38
2023/08/08 02:39:14;;;;;;;53.20;3.50;;;;;;;23.79;63.05;99122.69;7307327;19;130183;-38
2023/08/08 02:41:40;;;;;;;47.67;3.47;;;;;;;23.79;63.51;99127.94;7310630;19;128935;-40
2023/08/08 02:44:06;;;;;;;36.67;2.53;;;;;;;23.79;63.32;99122.69;7310197;19;129116;-44
2023/08/08 02:46:32;;;;;;;11.63;0.90;;;;;;;23.78;63.51;99121.06;7307922;19;129380;-41
2023/08/08 02:48:57;;;;;;;87.38;5.95;;;;;;;23.79;63.52;99125.31;7308595;19;129850;-39
2023/08/08 02:51:22;;;;;;;36.93;2.77;;;;;;;23.68;63.54;99103.81;7307214;19;130755;-37
2023/08/08 02:53:48;;;;;;;48.93;3.10;;;;;;;23.78;63.75;99131.56;7310543;19;129129;-44
2023/08/08 02:56:13;;;;;;;40.10;2.70;;;;;;;23.78;62.98;99121.06;7307990;19;129004;-38
2023/08/08 02:58:38;;;;;;;36.10;2.23;;;;;;;23.78;62.91;99123.69;7310406;19;129841;-38
2023/08/08 03:01:04;;;;;;;78.63;5.57;;;;;;;23.79;63.46;99127.94;7308650;19;129409;-42
2023/08/08 03:03:29;;;;;;;23.07;1.57;;;;;;;23.75;63.20;99123.97;7310226;19;129329;-37
2023/08/08 03:05:54;;;;;;;54.00;3.60;;;;;;;23.79;63.58;99133.19;7307982;19;128988;-41
2023/08/08 03:08:20;;;;;;;63.80;4.57;;;;;;;23.78;63.70;99128.94;7307721;19;129754;-42
2023/08/08 03:10:45;;;;;;;25.30;1.87;;;;;;;23.75;63.57;99120.56;7309002;19;129151;-36
2023/08/08 03:13:10;;;;;;;37.63;2.50;;;;;;;23.79;62.89;99127.94;7307112;19;128848;-39
2023/08/08 03:15:36;;;;;;;42.47;2.73;;;;;;;23.78;63.48;99126.31;7308052;19;129029;-38
2023/08/08 03:18:02;;;;;;;32.23;2.40;;;;;;;23.76;62.96;99127.44;7309747;19;130705;-39
2023/08/08 03:20:27;;;;;;;72.83;5.17;;;;;;;23.67;63.52;99113.50;7307309;19;129227;-37
2023/08/08 03:22:53;;;;;;;27.77;1.97;;;;;;;23.78;62.91;99125.47;7308579;19;129175;-38
2023/08/08 03:25:18;;;;;;;48.30;3.23;;;;;;;23.79;62.91;99127.09;7308060;19;129452;-37
2023/08/08 03:27:43;;;;;;;43.25;3.05;;;;;;;23.78;63.48;99121.06;7305319;19;129320;-40
2023/08/08 03:30:09;;;;;;;21.37;1.67;;;;;;;23.78;62.91;99118.44;7306988;19;128973;-41
2023/08/08 03:32:35;;;;;;;52.13;3.70;;;;;;;23.78;63.29;99120.22;7307932;19;129058;-42
2023/08/08 03:35:00;;;;;;;24.87;1.80;;;;;;;23.68;63.47;99104.66;7307494;19;129950;-36
2023/08/08 03:37:25;;;;;;;45.73;3.00;;;;;;;23.77;63.14;99121.19;7307977;19;130072;-38
2023/08/08 03:39:51;;;;;;;51.57;3.67;;;;;;;23.77;63.58;99116.78;7308405;19;130013;-38
2023/08/08 03:42:16;;;;;;;39.20;2.63;;;;;;;23.77;62.83;99123.81;7310397;19;129173;-35
2023/08/08 03:44:41;;;;;;;41.00;2.67;;;;;;;23.74;63.63;99119.72;7307875;19;129682;-46
2023/08/08 03:47:07;;;;;;;22.90;1.63;;;;;;;23.65;63.36;99102.34;7307238;19;130493;-41
2023/08/08 03:49:32;;;;;;;46.28;3.03;;;;;;;23.77;63.68;99124.66;7309029;19;130233;-39
2023/08/08 03:51:58;;;;;;;61.97;4.23;;;;;;;23.74;62.81;99121.53;7305498;19;128945;-40
2023/08/08 03:54:23;;;;;;;44.03;3.23;;;;;;;23.77;63.60;99129.91;7308503;19;129367;-46
2023/08/08 03:56:49;;;;;;;18.93;1.43;;;;;;;23.76;62.95;99123.03;7305498;19;129355;-39
2023/08/08 03:59:14;;;;;;;43.00;3.13;;;;;;;23.77;63.61;99124.66;7307788;19;129198;-42
2023/08/08 04:01:39;;;;;;;40.88;2.55;;;;;;;23.76;63.52;99117.78;7308315;19;129361;-41
2023/08/08 04:04:05;;;;;;;53.67;3.88;;;;;;;23.76;63.55;99122.19;7307788;19;129793;-43
2023/08/08 04:06:30;;;;;;;33.97;2.33;;;;;;;23.76;62.92;99117.78;7304192;19;130665;-37
2023/08/08 04:08:56;;;;;;;25.63;1.87;;;;;;;23.72;63.26;99119.06;7308412;19;131367;-42
2023/08/08 04:11:21;;;;;;;65.20;4.53;;;;;;;23.76;63.50;99119.56;7304202;19;129445;-40
2023/08/08 04:13:47;;;;;;;32.00;2.30;;;;;;;23.75;63.29;99113.47;7307181;19;129598;-37
2023/08/08 04:16:12;;;;;;;70.07;4.90;;;;;;;23.76;63.51;99123.03;7303653;19;129815;-45
2023/08/08 04:18:37;;;;;;;27.38;1.85;;;;;;;23.75;62.89;99105.59;7304873;19;130011;-40
2023/08/08 04:21:03;;;;;;;57.67;3.73;;;;;;;23.77;63.44;99108.06;7307344;19;129088;-42
2023/08/08 04:23:29;;;;;;;38.83;2.67;;;;;;;23.76;62.96;99109.91;7303738;19;129559;-42
2023/08/08 04:25:55;;;;;;;31.52;2.10;;;;;;;23.76;63.55;99106.44;7311131;19;129239;-36
2023/08/08 04:28:20;;;;;;;75.90;5.30;;;;;;;23.63;63.00;99091.19;7312633;19;128938;-38
2023/08/08 04:30:45;;;;;;;35.90;2.58;;;;;;;23.76;63.29;99107.28;7313583;19;130190;-41
2023/08/08 04:33:11;;;;;;;25.17;1.83;;;;;;;23.64;63.25;99092.84;7310531;19;129403;-42
2023/08/08 04:35:36;;;;;;;36.85;2.45;;;;;;;23.76;63.28;99106.44;7313377;19;129444;-40
2023/08/08 04:38:01;;;;;;;60.20;4.30;;;;;;;23.75;63.04;99105.59;7308178;19;129537;-43
2023/08/08 04:40:27;;;;;;;34.75;2.53;;;;;;;23.75;63.27;99121.34;7309407;19;129683;-43
2023/08/08 04:42:52;;;;;;;34.40;2.30;;;;;;;23.74;63.24;99119.72;7310962;19;129466;-37
2023/08/08 04:45:18;;;;;;;79.00;5.53;;;;;;;23.76;63.25;99128.28;7303372;19;130706;-39
2023/08/08 04:47:43;;;;;;;38.93;2.63;;;;;;;23.76;63.23;99124.81;7308319;19;129444;-42
2023/08/08 04:50:10;;;;;;;49.83;3.43;;;;;;;23.75;62.95;99123.97;7306322;19;130922;-38
2023/08/08 04:52:35;;;;;;;57.72;4.30;;;;;;;23.74;63.68;99124.97;7307399;19;130168;-43
2023/08/08 04:55:01;;;;;;;23.60;1.57;;;;;;;23.74;63.28;99124.97;7310303;19;130236;-39
2023/08/08 04:57:26;;;;;;;57.40;3.83;;;;;;;23.75;63.58;99131.84;7308548;19;130690;-38
2023/08/08 04:59:51;;;;;;;29.43;2.10;;;;;;;23.75;62.86;99137.09;7311431;19;130037;-41
2023/08/08 05:02:17;;;;;;;35.15;2.58;;;;;;;23.75;63.65;99129.22;7309566;19;130926;-41
2023/08/08 05:04:42;;;;;;;65.30;4.78;;;;;;;23.75;63.23;99131.06;7308133;19;130313;-42
2023/08/08 05:07:07;;;;;;;36.60;2.53;;;;;;;23.75;62.82;99131.06;7309920;19;129625;-37
2023/08/08 05:09:33;;;;;;;28.37;2.13;;;;;;;23.74;62.89;99135.47;7309767;19;129343;-40
2023/08/08 05:11:58;;;;;;;58.53;4.10;;;;;;;23.69;63.28;99129.91;7304745;19;129547;-40
2023/08/08 05:14:23;;;;;;;61.43;4.27;;;;;;;23.72;63.21;99132.19;7308684;19;129278;-37
2023/08/08 05:16:49;;;;;;;44.88;3.25;;;;;;;23.74;63.37;99130.22;7308303;19;130147;-38
2023/08/08 05:19:14;;;;;;;85.43;5.93;;;;;;;23.74;63.64;99122.34;7307732;19;129378;-40
2023/08/08 05:21:40;;;;;;;26.53;2.03;;;;;;;23.74;63.29;99130.22;7306853;19;130276;-40
2023/08/08 05:24:05;;;;;;;74.43;4.80;;;;;;;23.75;63.26;99123.97;7306630;19;130883;-43
2023/08/08 05:26:30;;;;;;;43.33;3.03;;;;;;;23.74;63.29;99118.91;7303915;19;131241;-42
2023/08/08 05:28:56;;;;;;;35.40;2.50;;;;;;;23.71;62.98;99114.00;7309110;19;129850;-40
2023/08/08 05:31:21;;;;;;;52.73;3.80;;;;;;;23.74;63.68;99122.34;7307981;19;130422;-36
2023/08/08 05:33:49;;;;;;;89.25;6.00;;;;;;;23.64;63.70;99111.19;7307251;19;129324;-37
2023/08/08 05:36:14;;;;;;;25.30;2.10;;;;;;;23.74;63.64;99124.16;7307363;19;129645;-41
2023/08/08 05:38:40;;;;;;;48.17;3.43;;;;;;;23.74;63.31;99116.28;7308604;19;129840;-48
2023/08/08 05:41:06;;;;;;;34.78;2.60;;;;;;;23.73;63.23;99118.09;7308594;19;130946;-37
2023/08/08 05:43:31;;;;;;;41.33;2.67;;;;;;;23.73;63.76;99109.41;7309937;19;130757;-46
2023/08/08 05:45:56;;;;;;;70.97;4.73;;;;;;;23.74;63.04;99124.97;7307798;19;130537;-45
2023/08/08 05:48:22;;;;;;;32.33;2.33;;;;;;;23.74;63.63;99119.72;7307419;19;131031;-37
2023/08/08 05:50:47;;;;;;;90.77;6.17;;;;;;;23.71;63.41;99127.13;7301003;19;129971;-47
2023/08/08 05:53:13;;;;;;;75.43;5.63;;;;;;;23.72;62.64;99121.69;7301860;19;133286;-37
2023/08/08 05:55:41;;;;;;;38.40;3.50;;;;;;;23.72;62.62;99124.31;7310079;19;129042;-36
2023/08/08 05:58:07;;;;;;;72.30;5.75;;;;;;;23.72;61.30;99126.94;7306295;19;130115;-40
2023/08/08 06:00:32;;;;;;;77.67;5.83;;;;;;;23.75;60.47;99121.34;7310147;19;129640;-35
2023/08/08 06:02:57;;;;;;;36.53;3.27;;;;;;;23.74;60.34;99132.84;7309089;19;129459;-41
2023/08/08 06:05:24;;;;;;;61.57;5.23;;;;;;;23.72;60.35;99119.06;7304037;19;131155;-37
2023/08/08 06:07:49;;;;;;;46.03;4.13;;;;;;;23.72;60.08;99132.19;7304813;19;130819;-42
2023/08/08 06:10:14;;;;;;;34.27;3.07;;;;;;;23.72;59.93;99136.63;7306753;19;129049;-36
2023/08/08 06:12:40;;;;;;;17.73;2.30;;;;;;;23.71;60.34;99135.81;7308029;19;129589;-41
2023/08/08 06:15:06;;;;;;;38.63;3.50;;;;;;;23.68;59.04;99133.53;7308472;19;128986;-38
2023/08/08 06:17:31;;;;;;;41.25;3.55;;;;;;;23.72;58.22;99137.44;7307097;19;129624;-39
2023/08/08 06:19:56;;;;;;;116.30;8.57;;;;;;;23.72;58.71;99136.63;7303493;19;131393;-42
2023/08/08 06:22:23;;;;;;;45.30;4.30;;;;;;;23.72;58.99;99134.81;7306435;19;129686;-41
2023/08/08 06:24:48;;;;;;;66.85;5.55;;;;;;;23.70;59.28;99139.41;7305529;19;130068;-45
2023/08/08 06:27:13;;;;;;;32.13;3.00;;;;;;;23.70;57.72;99149.91;7302669;19;130909;-38
2023/08/08 06:29:39;;;;;;;64.20;5.20;;;;;;;23.69;58.40;99145.66;7306491;19;129501;-36
2023/08/08 06:32:04;;;;;;;23.90;2.50;;;;;;;23.68;58.16;99146.66;7306096;19;129322;-47
2023/08/08 06:34:30;;;;;;;151.57;11.73;;;;;;;23.69;58.40;99143.03;7303061;19;129403;-38
2023/08/08 06:36:55;;;;;;;62.83;5.40;;;;;;;23.69;58.15;99148.28;7299850;19;130153;-42
2023/08/08 06:39:21;;;;;;;83.20;6.17;;;;;;;23.69;58.46;99143.03;7304309;19;130044;-36
2023/08/08 06:41:47;;;;;;;45.90;3.87;;;;;;;23.63;58.92;99127.94;7305414;19;130138;-43
2023/08/08 06:44:13;;;;;;;57.47;4.97;;;;;;;23.70;58.08;99142.03;7304349;19;131266;-40
2023/08/08 06:46:38;;;;;;;28.97;2.73;;;;;;;23.67;58.27;99133.69;7301869;19;129212;-42
2023/08/08 06:49:04;;;;;;;57.63;4.67;;;;;;;23.71;57.33;99146.31;7303839;19;132498;-43
2023/08/08 06:51:30;;;;;;;61.00;5.03;;;;;;;23.71;57.14;99135.81;7302343;19;131532;-39
2023/08/08 06:53:55;;;;;;;46.97;3.93;;;;;;;23.72;57.53;99141.88;7306085;19;129216;-42
2023/08/08 06:56:21;;;;;;;73.20;6.00;;;;;;;23.73;58.29;99138.28;7301868;19;129297;-33
2023/08/08 06:58:46;;;;;;;68.27;5.67;;;;;;;23.74;57.67;99140.72;7304594;19;129796;-36
2023/08/08 07:01:12;;;;;;;36.13;3.20;;;;;;;23.72;57.95;99142.69;7306111;19;130253;-40
2023/08/08 07:03:37;;;;;;;61.17;5.33;;;;;;;23.72;57.27;99137.44;7304121;19;129711;-47
2023/08/08 07:06:03;;;;;;;57.77;4.57;;;;;;;23.72;56.94;99136.63;7302656;19;130490;-37
2023/08/08 07:08:29;;;;;;;46.57;3.73;;;;;;;23.71;57.48;99135.00;7305006;19;129562;-36
2023/08/08 07:10:56;;;;;;;67.37;5.87;;;;;;;23.67;55.46;99131.88;7303106;19;130668;-40
2023/08/08 07:13:21;;;;;;;43.92;3.70;;;;;;;23.66;56.87;99126.78;7305438;19;129760;-40
2023/08/08 07:15:47;;;;;;;41.77;3.77;;;;;;;23.63;56.41;99124.50;7302880;19;129550;-31
2023/08/08 07:18:12;;;;;;;45.53;4.37;;;;;;;23.65;55.87;99115.44;7307422;19;129139;-38
2023/08/08 07:20:39;;;;;;;34.60;4.03;;;;;;;23.62;57.47;99107.91;7308152;19;129701;-42
2023/08/08 07:23:04;;;;;;;19.50;3.47;;;;;;;23.65;56.67;99114.66;7305957;19;129548;-38
2023/08/08 07:25:29;;;;;;;69.60;5.75;;;;;;;23.64;56.13;99108.56;7304251;19;129623;-34
2023/08/08 07:27:55;;;;;;;58.40;5.43;;;;;;;23.66;56.35;99116.28;7305779;19;130277;-34
2023/08/08 07:30:20;;;;;;;59.97;5.73;;;;;;;23.60;56.14;99111.69;7305000;19;129648;-44
2023/08/08 07:32:46;;;;;;;33.40;3.10;;;;;;;23.66;56.51;99132.88;7304499;19;129797;-36
2023/08/08 07:35:11;;;;;;;78.57;6.07;;;;;;;23.61;56.72;99129.91;7303940;19;129089;-43
2023/08/08 07:37:36;;;;;;;49.70;4.03;;;;;;;23.60;55.49;99124.81;7300574;19;129858;-41
2023/08/08 07:40:03;;;;;;;26.33;2.57;;;;;;;23.63;56.57;99127.13;7305463;19;130404;-39
2023/08/08 07:42:29;;;;;;;36.28;3.20;;;;;;;23.63;55.82;99125.31;7305261;19;130185;-38
2023/08/08 07:44:54;;;;;;;81.23;6.47;;;;;;;23.63;55.88;99122.69;7299815;19;129474;-36
2023/08/08 07:47:20;;;;;;;23.02;2.67;;;;;;;23.63;55.80;99121.88;7304291;19;128990;-37
2023/08/08 07:49:45;;;;;;;60.07;4.70;;;;;;;23.57;54.98;99125.97;7303415;19;129936;-41
2023/08/08 07:52:11;;;;;;;62.57;5.83;;;;;;;23.61;55.73;99119.41;7304724;19;131669;-43
2023/08/08 07:54:36;;;;;;;86.83;6.73;;;;;;;23.57;55.87;99123.34;7302847;19;131146;-40
2023/08/08 07:57:02;;;;;;;63.33;5.47;;;;;;;23.53;55.44;99116.78;7299479;19;130304;-41
2023/08/08 07:59:27;;;;;;;96.47;7.23;;;;;;;23.53;56.01;99123.84;7307063;19;130072;-47
2023/08/08 08:01:52;;;;;;;75.72;5.80;;;;;;;23.51;55.27;99124.00;7309465;19;129525;-38
2023/08/08 08:04:18;;;;;;;55.83;4.22;;;;;;;23.50;56.04;99127.63;7313915;19;130433;-37
2023/08/08 08:06:43;;;;;;;64.13;5.33;;;;;;;23.53;55.56;99126.47;7305691;19;130237;-42
2023/08/08 08:09:08;;;;;;;56.67;4.83;;;;;;;23.51;55.98;99129.25;7310528;19;130805;-33
2023/08/08 08:11:34;;;;;;;77.20;5.53;;;;;;;23.52;56.20;99130.88;7308720;19;129667;-39
2023/08/08 08:13:59;;;;;;;66.33;5.37;;;;;;;23.56;55.39;99131.38;7310925;19;130830;-46
2023/08/08 08:16:24;;;;;;;58.20;4.97;;;;;;;23.56;55.81;99139.25;7308755;19;129321;-38
2023/08/08 08:18:50;;;;;;;31.70;2.90;;;;;;;23.56;55.50;99132.19;7308648;19;129434;-34
2023/08/08 08:21:17;;;;;;;73.20;5.60;;;;;;;23.49;55.62;99125.97;7309212;19;129232;-43
2023/08/08 08:23:43;;;;;;;57.13;4.63;;;;;;;23.53;55.39;99127.28;7306259;19;131662;-34
2023/08/08 08:26:08;;;;;;;26.00;2.23;;;;;;;23.48;55.94;99103.34;7305530;19;130651;-40
2023/08/08 08:28:33;;;;;;;66.43;5.40;;;;;;;23.50;56.23;99126.78;7307899;19;131436;-32
2023/08/08 08:31:04;;;;;;;42.60;3.53;;;;;;;23.53;56.95;99122.03;7311696;19;130048;-37
2023/08/08 08:33:30;;;;;;;55.33;4.47;;;;;;;23.48;56.33;99118.25;7309696;19;129650;-45
2023/08/08 08:35:55;;;;;;;47.23;4.10;;;;;;;23.53;56.43;99121.22;7307038;19;129800;-40
2023/08/08 08:38:20;;;;;;;87.80;6.20;;;;;;;23.48;55.78;99113.84;7302333;19;129737;-36
2023/08/08 08:40:48;;;;;;;114.82;8.60;;;;;;;23.47;55.80;99114.78;7301750;19;130536;-46
2023/08/08 08:43:15;;;;;;;82.70;6.13;;;;;;;23.48;56.27;99118.25;7303101;19;130520;-43
2023/08/08 08:45:42;;;;;;;;;;;;;;;23.40;55.94;99094.63;7307012;19;130003;-37
2023/08/08 08:48:11;;;;;;;88.27;6.83;;;;;;;23.42;54.99;99111.84;7303799;19;130463;-39
2023/08/08 08:50:39;;;;;;;63.17;4.53;;;;;;;23.35;55.52;99116.13;7306364;19;130521;-45
2023/08/08 08:53:05;;;;;;;58.92;4.38;;;;;;;23.38;55.49;99121.03;7305594;19;129762;-43
2023/08/08 08:55:31;;;;;;;46.17;3.80;;;;;;;23.32;55.74;99095.44;7305288;19;130174;-41
2023/08/08 08:57:56;;;;;;;26.67;2.60;;;;;;;23.38;55.21;99113.16;7309648;19;129271;-39
2023/08/08 09:00:22;;;;;;;83.10;6.27;;;;;;;23.44;55.43;99112.50;7309033;19;129519;-42
2023/08/08 09:02:48;;;;;;;37.73;3.13;;;;;;;23.44;56.14;99119.53;7310136;19;129883;-41
2023/08/08 09:05:15;;;;;;;31.70;3.00;;;;;;;23.44;56.29;99119.53;7308142;19;129206;-38
2023/08/08 09:07:41;;;;;;;70.07;5.47;;;;;;;23.43;54.45;99116.13;7305632;19;130330;-40
2023/08/08 09:10:07;;;;;;;51.07;3.37;;;;;;;23.44;56.14;99117.75;7307183;19;129445;-43
2023/08/08 09:12:33;;;;;;;35.93;2.93;;;;;;;23.46;55.90;99126.28;7308081;19;129337;-44
2023/08/08 09:14:59;;;;;;;;;;;;;;;23.55;55.47;99130.53;7307808;19;130175;-40
2023/08/08 09:17:27;;;;;;;41.90;3.50;;;;;;;23.37;55.91;99129.06;7307955;19;129443;-42
2023/08/08 09:19:54;;;;;;;78.07;5.75;;;;;;;23.27;54.24;99123.16;7309745;19;129603;-40
2023/08/08 09:22:20;;;;;;;28.10;2.67;;;;;;;23.26;55.44;99119.66;7310190;19;129130;-44
2023/08/08 09:24:46;;;;;;;33.13;2.97;;;;;;;23.40;56.21;99142.69;7308163;19;130684;-41
2023/08/08 09:27:12;;;;;;;68.17;5.30;;;;;;;23.44;55.84;99130.88;7305838;19;130476;-39
2023/08/08 09:29:37;;;;;;;75.10;5.57;;;;;;;23.43;54.82;99152.84;7309772;19;130335;-42
2023/08/08 09:32:04;;;;;;;25.50;2.50;;;;;;;23.41;55.65;99133.81;7311566;19;129100;-42
2023/08/08 09:34:30;;;;;;;117.65;9.23;;;;;;;23.38;55.52;99134.16;7308725;19;129501;-42
2023/08/08 09:36:56;;;;;;;43.70;3.43;;;;;;;23.40;55.48;99132.19;7310768;19;130685;-40
2023/08/08 09:39:21;;;;;;;43.70;3.63;;;;;;;23.39;56.03;99127.91;7311241;19;130492;-37
2023/08/08 09:41:47;;;;;;;82.23;6.10;;;;;;;23.31;56.29;99101.69;7307836;19;131231;-44
2023/08/08 09:44:13;;;;;;;55.93;4.33;;;;;;;23.48;55.76;99134.00;7311180;19;131058;-45
2023/08/08 09:46:39;;;;;;;54.33;4.43;;;;;;;23.42;56.39;99132.03;7304897;19;130580;-43
2023/08/08 09:49:05;;;;;;;53.28;3.97;;;;;;;23.43;55.31;99123.16;7311228;19;129542;-40
2023/08/08 09:51:33;;;;;;;24.65;2.20;;;;;;;23.35;55.49;99097.75;7310806;19;129511;-43
2023/08/08 09:53:59;;;;;;;59.55;4.60;;;;;;;23.46;56.21;99126.28;7308669;19;129398;-40
2023/08/08 09:56:25;;;;;;;48.92;3.90;;;;;;;23.47;56.36;99125.28;7306683;19;130558;-43
2023/08/08 09:58:52;;;;;;;79.83;6.27;;;;;;;23.46;55.99;99126.28;7308302;19;130440;-40
2023/08/08 10:01:18;;;;;;;;;;;;;;;23.52;56.31;99123.00;7309854;19;129664;-41
2023/08/08 10:03:44;;;;;;;48.10;4.05;;;;;;;23.46;55.50;99126.28;7310087;19;131070;-42
2023/08/08 10:06:10;;;;;;;37.17;3.07;;;;;;;23.33;56.03;99110.22;7307543;19;130424;-41
2023/08/08 10:08:35;;;;;;;28.17;2.45;;;;;;;23.46;55.73;99131.53;7311436;19;129051;-42
2023/08/08 10:11:02;;;;;;;51.10;4.25;;;;;;;23.47;55.78;99130.53;7308770;19;130033;-43
2023/08/08 10:13:27;;;;;;;31.98;2.83;;;;;;;23.43;55.04;99131.88;7306893;19;129396;-39
2023/08/08 10:15:54;;;;;;;78.63;5.83;;;;;;;23.43;55.60;99121.38;7307801;19;129878;-42
2023/08/08 10:18:23;;;;;;;42.65;3.65;;;;;;;23.45;55.97;99118.59;7309585;19;129035;-42
2023/08/08 10:20:50;;;;;;;42.92;3.88;;;;;;;23.40;55.05;99119.06;7309373;19;130065;-42
2023/08/08 10:23:19;;;;;;;34.28;3.25;;;;;;;23.45;55.35;99129.06;7309560;19;130233;-40
2023/08/08 10:25:46;;;;;;;58.10;4.43;;;;;;;23.44;55.14;99125.63;7306187;19;129270;-42
2023/08/08 10:28:14;;;;;;;27.42;2.58;;;;;;;23.43;55.25;99124.00;7308017;19;130152;-43
2023/08/08 10:30:47;;;;;;;25.13;2.30;;;;;;;23.44;56.67;99122.16;7309869;19;128970;-44
2023/08/08 10:33:18;;;;;;;52.67;4.05;;;;;;;23.44;56.26;99115.13;7307582;19;129190;-42
2023/08/08 10:35:56;;;;;;;33.95;2.88;;;;;;;23.48;56.01;99119.09;7307040;19;130102;-41
2023/08/08 10:38:22;;;;;;;;;;;;;;;23.54;56.18;99122.84;7308422;19;129966;-41
2023/08/08 10:40:47;;;;;;;37.72;3.05;;;;;;;23.44;55.62;99107.25;7307935;19;130867;-41
2023/08/08 10:43:13;;;;;;;90.33;7.03;;;;;;;23.43;55.65;99105.63;7304910;19;129427;-42
2023/08/08 10:45:44;;;;;;;14.50;1.60;;;;;;;23.37;56.52;99090.53;7302321;19;132605;-41
2023/08/08 10:48:10;;;;;;;38.55;3.35;;;;;;;23.37;55.86;99085.28;7306444;19;129598;-42
2023/08/08 10:50:40;;;;;;;42.77;3.70;;;;;;;23.40;56.71;99082.34;7307900;19;129927;-42
2023/08/08 10:53:09;;;;;;;49.35;4.03;;;;;;;23.45;56.75;99095.81;7305703;19;130043;-41
2023/08/08 10:55:36;;;;;;;43.13;3.42;;;;;;;23.45;55.45;99106.28;7306006;19;129505;-45
2023/08/08 10:58:10;;;;;;;18.25;1.92;;;;;;;23.44;56.69;99091.50;7307769;19;130250;-42
2023/08/08 11:00:39;;;;;;;66.20;4.88;;;;;;;23.42;55.59;99088.22;7307781;19;129034;-43
2023/08/08 11:03:05;;;;;;;41.92;3.47;;;;;;;23.44;56.47;99085.44;7306213;19;130631;-41
2023/08/08 11:05:32;;;;;;;36.58;2.97;;;;;;;23.45;56.25;99087.94;7305006;19;129475;-43
2023/08/08 11:07:59;;;;;;;71.15;5.75;;;;;;;23.44;56.00;99085.44;7304045;19;129655;-41
2023/08/08 11:10:30;;;;;;;73.07;5.80;;;;;;;23.42;56.56;99085.59;7306948;19;130308;-43
2023/08/08 11:13:04;;;;;;;50.97;4.22;;;;;;;23.43;57.09;99078.56;7302948;19;129279;-41